createdAt,value
2018-11-01T00:00:46.425Z,17.49
2018-11-01T00:03:19.196Z,17.42
2018-11-01T00:05:50.853Z,17.34
2018-11-01T00:08:23.386Z,17.37
2018-11-01T00:10:54.667Z,17.41
2018-11-01T00:13:27.655Z,17.32
2018-11-01T00:15:59.823Z,17.32
2018-11-01T00:18:31.346Z,17.33
2018-11-01T00:21:03.373Z,17.27
2018-11-01T00:23:34.576Z,17.20
2018-11-01T00:26:05.916Z,17.14
2018-11-01T00:28:38.066Z,17.10
2018-11-01T00:31:09.847Z,17.10
2018-11-01T00:33:41.178Z,17.13
2018-11-01T00:36:12.354Z,17.31
2018-11-01T00:38:43.654Z,17.27
2018-11-01T00:41:14.837Z,16.91
2018-11-01T00:43:46.009Z,17.22
2018-11-01T00:46:17.173Z,17.23
2018-11-01T00:48:48.731Z,17.12
2018-11-01T00:51:21.477Z,16.43
2018-11-01T00:53:52.759Z,17.15
2018-11-01T00:56:24.002Z,17.27
2018-11-01T00:58:55.322Z,17.16
2018-11-01T01:01:26.541Z,17.23
2018-11-01T01:03:58.067Z,17.27
2018-11-01T01:06:29.262Z,17.21
2018-11-01T01:09:00.713Z,17.20
2018-11-01T01:11:31.973Z,17.21
2018-11-01T01:14:03.237Z,17.18
2018-11-01T01:16:34.438Z,17.16
2018-11-01T01:19:08.868Z,17.28
2018-11-01T01:21:40.419Z,17.29
2018-11-01T01:24:18.552Z,17.21
2018-11-01T01:26:53.916Z,17.12
2018-11-01T01:29:26.543Z,17.09
2018-11-01T01:32:00.694Z,17.20
2018-11-01T01:34:32.103Z,17.22
2018-11-01T01:37:03.711Z,16.68
2018-11-01T01:39:34.900Z,17.12
2018-11-01T01:42:06.119Z,17.07
2018-11-01T01:44:37.944Z,17.18
2018-11-01T01:47:09.113Z,17.17
2018-11-01T01:49:44.033Z,16.85
2018-11-01T01:52:17.127Z,17.18
2018-11-01T01:54:48.443Z,17.23
2018-11-01T01:57:20.344Z,17.25
2018-11-01T01:59:52.977Z,17.16
2018-11-01T02:02:29.854Z,17.14
2018-11-01T02:05:03.860Z,17.15
2018-11-01T02:07:37.204Z,17.18
2018-11-01T02:10:11.994Z,17.16
2018-11-01T02:12:47.265Z,17.21
2018-11-01T02:15:22.597Z,17.24
2018-11-01T02:17:53.760Z,17.22
2018-11-01T02:20:38.978Z,17.16
2018-11-01T02:23:11.917Z,17.11
2018-11-01T02:25:44.854Z,17.15
2018-11-01T02:32:41.487Z,17.07
2018-11-01T02:35:19.443Z,16.60
2018-11-01T02:37:56.571Z,17.11
2018-11-01T02:40:28.563Z,17.16
2018-11-01T02:42:59.827Z,17.14
2018-11-01T02:45:35.244Z,17.15
2018-11-01T02:48:06.744Z,17.11
2018-11-01T02:50:38.730Z,17.11
2018-11-01T02:53:11.709Z,17.09
2018-11-01T02:55:42.854Z,16.93
2018-11-01T02:58:13.325Z,17.01
2018-11-01T03:00:44.669Z,16.96
2018-11-01T03:03:17.317Z,16.78
2018-11-01T03:05:49.396Z,16.74
2018-11-01T03:08:20.262Z,16.80
2018-11-01T03:10:51.665Z,16.77
2018-11-01T03:13:23.780Z,16.77
2018-11-01T03:15:56.177Z,16.77
2018-11-01T03:18:29.500Z,16.76
2018-11-01T03:20:59.884Z,15.93
2018-11-01T03:23:32.456Z,16.59
2018-11-01T03:26:06.279Z,16.72
2018-11-01T03:28:37.594Z,16.67
2018-11-01T03:31:09.923Z,16.54
2018-11-01T03:33:41.497Z,16.59
2018-11-01T03:36:12.603Z,16.52
2018-11-01T03:38:44.630Z,16.40
2018-11-01T03:41:15.054Z,16.27
2018-11-01T03:43:46.335Z,16.40
2018-11-01T03:46:17.433Z,16.54
2018-11-01T03:48:49.017Z,16.49
2018-11-01T03:51:20.101Z,16.50
2018-11-01T03:53:52.259Z,16.53
2018-11-01T03:56:23.416Z,16.45
2018-11-01T03:58:54.614Z,16.25
2018-11-01T04:01:26.334Z,16.23
2018-11-01T04:03:59.582Z,16.17
2018-11-01T04:06:37.421Z,16.07
2018-11-01T04:09:10.818Z,16.12
2018-11-01T04:11:42.361Z,16.19
2018-11-01T04:14:13.497Z,16.10
2018-11-01T04:16:44.717Z,15.94
2018-11-01T04:19:15.997Z,16.00
2018-11-01T04:21:52.276Z,15.86
2018-11-01T04:24:23.716Z,15.77
2018-11-01T04:26:55.628Z,15.81
2018-11-01T04:29:26.826Z,15.79
2018-11-01T04:31:58.989Z,15.87
2018-11-01T04:34:30.070Z,15.89
2018-11-01T04:37:01.227Z,15.90
2018-11-01T04:39:32.103Z,15.77
2018-11-01T04:42:03.237Z,15.80
2018-11-01T04:44:34.689Z,15.85
2018-11-01T04:47:05.850Z,15.79
2018-11-01T04:49:36.921Z,15.50
2018-11-01T04:52:08.471Z,15.49
2018-11-01T04:54:38.722Z,15.52
2018-11-01T04:57:10.106Z,15.09
2018-11-01T04:59:41.562Z,15.29
2018-11-01T05:02:12.721Z,15.27
2018-11-01T05:04:44.953Z,15.34
2018-11-01T05:07:15.244Z,15.46
2018-11-01T05:09:46.312Z,15.53
2018-11-01T05:12:17.889Z,15.57
2018-11-01T05:14:48.181Z,15.38
2018-11-01T05:17:21.369Z,15.23
2018-11-01T05:19:52.521Z,15.32
2018-11-01T05:22:23.696Z,15.44
2018-11-01T05:24:55.202Z,15.49
2018-11-01T05:27:27.242Z,15.49
2018-11-01T05:29:58.478Z,15.59
2018-11-01T05:32:29.469Z,15.59
2018-11-01T05:35:00.872Z,15.61
2018-11-01T05:37:31.476Z,15.74
2018-11-01T05:40:02.659Z,15.80
2018-11-01T05:42:34.772Z,15.84
2018-11-01T05:45:05.150Z,15.91
2018-11-01T05:47:37.430Z,16.06
2018-11-01T05:50:10.917Z,16.03
2018-11-01T05:52:41.309Z,16.02
2018-11-01T05:55:13.537Z,16.08
2018-11-01T05:57:46.713Z,16.18
2018-11-01T06:00:17.098Z,16.13
2018-11-01T06:02:51.558Z,16.18
2018-11-01T06:05:22.607Z,16.33
2018-11-01T06:07:59.689Z,16.39
2018-11-01T06:10:30.924Z,16.48
2018-11-01T06:13:04.356Z,16.53
2018-11-01T06:15:34.779Z,16.50
2018-11-01T06:18:06.376Z,16.39
2018-11-01T06:20:37.501Z,16.52
2018-11-01T06:23:08.081Z,15.87
2018-11-01T06:25:37.373Z,16.15
2018-11-01T06:28:09.077Z,16.70
2018-11-01T06:30:40.046Z,16.74
2018-11-01T06:33:12.385Z,16.72
2018-11-01T06:35:53.233Z,16.94
2018-11-01T06:38:23.888Z,16.94
2018-11-01T06:40:55.144Z,16.81
2018-11-01T06:43:25.645Z,16.78
2018-11-01T06:45:57.465Z,16.83
2018-11-01T06:48:27.774Z,16.90
2018-11-01T06:51:00.206Z,16.86
2018-11-01T06:53:36.626Z,16.84
2018-11-01T06:56:07.757Z,16.90
2018-11-01T06:58:38.972Z,16.97
2018-11-01T07:01:09.274Z,17.14
2018-11-01T07:03:40.361Z,17.24
2018-11-01T07:06:10.692Z,17.28
2018-11-01T07:08:41.405Z,17.49
2018-11-01T07:11:13.495Z,17.58
2018-11-01T07:13:44.712Z,17.57
2018-11-01T07:16:15.964Z,17.75
2018-11-01T07:18:48.323Z,17.83
2018-11-01T07:21:21.431Z,17.87
2018-11-01T07:23:57.469Z,17.77
2018-11-01T07:26:38.083Z,17.81
2018-11-01T07:29:08.444Z,17.67
2018-11-01T07:31:39.516Z,17.79
2018-11-01T07:34:14.213Z,17.58
2018-11-01T07:36:44.461Z,17.67
2018-11-01T07:39:16.385Z,17.67
2018-11-01T07:41:46.672Z,17.64
2018-11-01T07:44:17.917Z,17.50
2018-11-01T07:46:48.495Z,17.59
2018-11-01T07:49:18.736Z,17.72
2018-11-01T07:51:49.289Z,17.53
2018-11-01T07:54:27.783Z,17.31
2018-11-01T07:56:58.905Z,17.40
2018-11-01T07:59:29.457Z,16.89
2018-11-01T08:02:02.205Z,17.31
2018-11-01T08:04:32.489Z,17.38
2018-11-01T08:07:02.803Z,17.31
2018-11-01T08:09:35.208Z,17.02
2018-11-01T08:12:05.488Z,16.71
2018-11-01T08:14:34.869Z,17.14
2018-11-01T08:17:05.356Z,17.21
2018-11-01T08:19:43.752Z,17.48
2018-11-01T08:22:20.469Z,17.63
2018-11-01T08:24:58.813Z,17.66
2018-11-01T08:27:29.363Z,17.53
2018-11-01T08:30:00.769Z,17.44
2018-11-01T08:32:35.547Z,17.50
2018-11-01T08:35:14.009Z,17.42
2018-11-01T08:37:46.943Z,17.42
2018-11-01T08:40:18.526Z,17.42
2018-11-01T08:42:48.933Z,17.47
2018-11-01T08:45:18.397Z,17.39
2018-11-01T08:47:53.747Z,17.36
2018-11-01T08:50:28.038Z,17.25
2018-11-01T08:52:57.511Z,17.25
2018-11-01T08:55:28.824Z,17.12
2018-11-01T08:57:59.019Z,17.34
2018-11-01T09:00:35.265Z,17.40
2018-11-01T09:03:05.620Z,17.28
2018-11-01T09:05:38.230Z,17.25
2018-11-01T09:08:13.503Z,17.20
2018-11-01T09:10:44.941Z,17.10
2018-11-01T09:13:16.225Z,16.99
2018-11-01T09:15:46.797Z,17.05
2018-11-01T09:18:17.026Z,17.15
2018-11-01T09:20:46.435Z,17.21
2018-11-01T09:23:15.879Z,17.41
2018-11-01T09:25:45.252Z,17.34
2018-11-01T09:28:15.864Z,17.27
2018-11-01T09:30:46.193Z,17.31
2018-11-01T09:33:19.458Z,17.46
2018-11-01T09:35:49.484Z,17.63
2018-11-01T09:38:19.075Z,17.71
2018-11-01T09:40:53.269Z,17.84
2018-11-01T09:43:23.106Z,18.05
2018-11-01T09:45:53.208Z,18.05
2018-11-01T09:48:24.615Z,17.91
2018-11-01T09:50:55.147Z,17.89
2018-11-01T09:53:25.475Z,18.21
2018-11-01T09:55:55.222Z,18.11
2018-11-01T09:58:25.817Z,18.13
2018-11-01T10:00:57.499Z,18.24
2018-11-01T10:03:30.110Z,18.34
2018-11-01T10:06:01.701Z,18.24
2018-11-01T10:08:31.245Z,18.38
2018-11-01T10:11:02.430Z,18.49
2018-11-01T10:13:35.177Z,18.57
2018-11-01T10:16:05.319Z,18.58
2018-11-01T10:18:38.426Z,18.61
2018-11-01T10:21:08.295Z,18.52
2018-11-01T10:23:39.234Z,18.52
2018-11-01T10:26:09.181Z,18.73
2018-11-01T10:28:42.093Z,18.89
2018-11-01T10:31:11.481Z,19.21
2018-11-01T10:33:42.658Z,19.59
2018-11-01T10:36:14.515Z,19.69
2018-11-01T10:38:44.926Z,19.53
2018-11-01T10:41:16.470Z,19.39
2018-11-01T10:43:48.250Z,19.32
2018-11-01T10:46:18.594Z,19.33
2018-11-01T10:48:50.429Z,19.38
2018-11-01T10:51:19.897Z,19.55
2018-11-01T10:53:49.341Z,18.98
2018-11-01T10:56:19.259Z,19.80
2018-11-01T10:58:49.708Z,19.86
2018-11-01T11:01:24.225Z,20.05
2018-11-01T11:03:53.569Z,20.31
2018-11-01T11:06:23.076Z,20.66
2018-11-01T11:08:52.560Z,20.42
2018-11-01T11:11:22.230Z,20.02
2018-11-01T11:13:52.737Z,19.90
2018-11-01T11:16:22.228Z,20.20
2018-11-01T11:18:51.678Z,20.35
2018-11-01T11:21:21.175Z,20.28
2018-11-01T11:23:51.013Z,20.16
2018-11-01T11:26:20.561Z,20.14
2018-11-01T11:28:50.569Z,20.19
2018-11-01T11:31:20.669Z,20.10
2018-11-01T11:33:50.603Z,20.14
2018-11-01T11:36:26.556Z,19.15
2018-11-01T11:38:57.426Z,19.98
2018-11-01T11:41:26.957Z,19.54
2018-11-01T11:43:59.343Z,19.13
2018-11-01T11:46:29.533Z,18.85
2018-11-01T11:49:00.672Z,18.76
2018-11-01T11:51:30.202Z,18.91
2018-11-01T11:53:59.892Z,18.99
2018-11-01T11:56:32.930Z,19.12
2018-11-01T11:59:04.317Z,19.19
2018-11-01T12:01:34.450Z,19.68
2018-11-01T12:04:04.594Z,19.78
2018-11-01T12:06:34.603Z,19.77
2018-11-01T12:09:10.254Z,19.44
2018-11-01T12:11:40.551Z,19.22
2018-11-01T12:14:10.007Z,19.09
2018-11-01T12:16:40.422Z,19.07
2018-11-01T12:19:09.806Z,19.07
2018-11-01T12:21:40.838Z,18.90
2018-11-01T12:24:12.763Z,18.64
2018-11-01T12:26:43.841Z,18.48
2018-11-01T12:29:13.221Z,18.22
2018-11-01T12:31:44.654Z,18.19
2018-11-01T12:34:16.252Z,18.07
2018-11-01T12:36:47.238Z,17.99
2018-11-01T12:39:18.036Z,17.94
2018-11-01T12:41:48.173Z,17.79
2018-11-01T12:44:18.424Z,18.07
2018-11-01T12:46:48.403Z,17.92
2018-11-01T12:49:20.556Z,17.82
2018-11-01T12:51:51.492Z,17.82
2018-11-01T12:54:25.456Z,17.65
2018-11-01T12:56:56.348Z,17.59
2018-11-01T12:59:26.572Z,17.31
2018-11-01T13:01:57.221Z,17.25
2018-11-01T13:04:27.541Z,17.48
2018-11-01T13:06:58.513Z,17.38
2018-11-01T13:09:28.380Z,17.32
2018-11-01T13:12:02.713Z,17.29
2018-11-01T13:14:32.453Z,17.38
2018-11-01T13:17:02.664Z,17.59
2018-11-01T13:19:33.918Z,17.67
2018-11-01T13:22:04.454Z,17.80
2018-11-01T13:24:34.793Z,17.70
2018-11-01T13:27:20.590Z,17.65
2018-11-01T13:29:51.996Z,18.06
2018-11-01T13:32:21.515Z,18.35
2018-11-01T13:34:52.079Z,18.59
2018-11-01T13:37:21.620Z,18.86
2018-11-01T13:39:51.457Z,18.97
2018-11-01T13:42:23.793Z,19.09
2018-11-01T13:44:53.809Z,19.14
2018-11-01T13:47:23.307Z,19.08
2018-11-01T13:49:52.851Z,18.52
2018-11-01T13:52:24.329Z,18.45
2018-11-01T13:54:53.858Z,18.18
2018-11-01T13:57:24.561Z,18.43
2018-11-01T13:59:54.126Z,18.53
2018-11-01T14:02:25.266Z,18.64
2018-11-01T14:04:55.341Z,18.53
2018-11-01T14:07:25.660Z,18.97
2018-11-01T14:09:55.892Z,18.89
2018-11-01T14:12:27.001Z,18.99
2018-11-01T14:14:56.581Z,18.81
2018-11-01T14:17:26.092Z,19.00
2018-11-01T14:19:56.491Z,18.90
2018-11-01T14:22:26.878Z,18.83
2018-11-01T14:24:56.385Z,18.88
2018-11-01T14:27:27.438Z,19.13
2018-11-01T14:29:56.913Z,19.12
2018-11-01T14:32:26.342Z,18.89
2018-11-01T14:34:55.765Z,18.81
2018-11-01T14:37:27.357Z,18.90
2018-11-01T14:39:58.967Z,19.16
2018-11-01T14:42:29.397Z,19.82
2018-11-01T14:44:58.833Z,20.34
2018-11-01T14:47:29.067Z,20.27
2018-11-01T14:49:58.490Z,19.96
2018-11-01T14:52:28.437Z,19.44
2018-11-01T14:54:59.753Z,18.25
2018-11-01T14:57:30.321Z,18.72
2018-11-01T14:59:59.766Z,18.50
2018-11-01T15:02:31.234Z,18.61
2018-11-01T15:05:01.265Z,18.96
2018-11-01T15:07:31.717Z,19.02
2018-11-01T15:10:02.848Z,19.59
2018-11-01T15:12:32.311Z,20.06
2018-11-01T15:15:02.194Z,19.21
2018-11-01T15:17:32.421Z,19.32
2018-11-01T15:20:02.695Z,19.24
2018-11-01T15:22:32.437Z,19.38
2018-11-01T15:25:01.844Z,18.98
2018-11-01T15:27:31.524Z,18.65
2018-11-01T15:30:06.116Z,18.75
2018-11-01T15:32:35.681Z,18.61
2018-11-01T15:35:05.948Z,18.65
2018-11-01T15:37:35.953Z,18.59
2018-11-01T15:40:07.240Z,18.38
2018-11-01T15:42:39.289Z,18.40
2018-11-01T15:45:11.579Z,18.45
2018-11-01T15:47:42.092Z,18.59
2018-11-01T15:50:14.462Z,18.40
2018-11-01T15:52:44.072Z,18.43
2018-11-01T15:55:13.522Z,18.56
2018-11-01T15:57:44.834Z,18.66
2018-11-01T16:00:16.194Z,18.47
2018-11-01T16:02:46.537Z,18.30
2018-11-01T16:05:18.210Z,18.21
2018-11-01T16:07:49.446Z,18.12
2018-11-01T16:10:19.888Z,17.83
2018-11-01T16:12:50.601Z,17.63
2018-11-01T16:15:21.571Z,17.37
2018-11-01T16:17:51.389Z,17.30
2018-11-01T16:20:21.188Z,17.11
2018-11-01T16:22:50.818Z,16.94
2018-11-01T16:25:20.595Z,16.83
2018-11-01T16:27:50.208Z,16.90
2018-11-01T16:30:21.657Z,16.86
2018-11-01T16:32:51.129Z,17.11
2018-11-01T16:35:20.554Z,17.49
2018-11-01T16:37:50.880Z,17.50
2018-11-01T16:40:22.753Z,17.22
2018-11-01T16:42:53.553Z,17.12
2018-11-01T16:45:25.609Z,17.05
2018-11-01T16:47:55.041Z,17.08
2018-11-01T16:50:26.688Z,17.14
2018-11-01T16:52:57.413Z,17.12
2018-11-01T16:55:26.837Z,17.03
2018-11-01T16:57:56.266Z,16.89
2018-11-01T17:00:26.652Z,17.02
2018-11-01T17:03:03.445Z,16.91
2018-11-01T17:05:34.781Z,17.01
2018-11-01T17:08:04.362Z,16.84
2018-11-01T17:10:35.832Z,16.85
2018-11-01T17:13:05.893Z,16.63
2018-11-01T17:15:35.624Z,16.66
2018-11-01T17:18:12.505Z,16.54
2018-11-01T17:20:43.205Z,16.52
2018-11-01T17:23:14.529Z,16.36
2018-11-01T17:25:44.577Z,16.49
2018-11-01T17:28:14.840Z,16.44
2018-11-01T17:30:44.869Z,16.19
2018-11-01T17:33:16.166Z,16.09
2018-11-01T17:35:45.660Z,16.19
2018-11-01T17:38:15.577Z,16.24
2018-11-01T17:40:44.993Z,16.02
2018-11-01T17:43:15.653Z,15.82
2018-11-01T17:45:47.609Z,15.68
2018-11-01T17:48:17.282Z,15.65
2018-11-01T17:50:46.665Z,15.79
2018-11-01T17:53:16.397Z,15.98
2018-11-01T17:55:46.406Z,15.80
2018-11-01T17:58:19.545Z,15.86
2018-11-01T18:00:50.095Z,15.97
2018-11-01T18:03:19.485Z,15.92
2018-11-01T18:05:48.901Z,15.80
2018-11-01T18:08:19.664Z,15.85
2018-11-01T18:10:49.327Z,16.26
2018-11-01T18:13:24.133Z,16.41
2018-11-01T18:15:55.170Z,16.41
2018-11-01T18:18:28.644Z,16.55
2018-11-01T18:20:58.382Z,16.10
2018-11-01T18:23:27.962Z,15.81
2018-11-01T18:25:58.692Z,15.63
2018-11-01T18:28:28.385Z,15.68
2018-11-01T18:33:36.484Z,15.76
2018-11-01T18:36:08.431Z,15.87
2018-11-01T18:38:37.869Z,15.99
2018-11-01T18:41:08.251Z,16.05
2018-11-01T18:43:38.538Z,16.23
2018-11-01T18:46:09.247Z,16.42
2018-11-01T18:48:40.101Z,16.63
2018-11-01T18:51:12.355Z,16.85
2018-11-01T18:53:42.023Z,16.92
2018-11-01T18:56:13.360Z,16.91
2018-11-01T18:58:45.936Z,16.97
2018-11-01T19:01:18.199Z,16.91
2018-11-01T19:03:49.400Z,17.09
2018-11-01T19:06:22.578Z,17.33
2018-11-01T19:08:53.757Z,17.34
2018-11-01T19:11:26.685Z,17.22
2018-11-01T19:14:01.496Z,17.00
2018-11-01T19:16:33.107Z,16.93
2018-11-01T19:19:02.565Z,16.82
2018-11-01T19:21:32.085Z,16.74
2018-11-01T19:24:04.465Z,16.75
2018-11-01T19:26:35.860Z,16.75
2018-11-01T19:29:05.860Z,16.67
2018-11-01T19:31:36.817Z,16.60
2018-11-01T19:34:08.266Z,16.57
2018-11-01T19:36:41.641Z,16.53
2018-11-01T19:39:13.223Z,16.37
2018-11-01T19:41:44.422Z,16.42
2018-11-01T19:44:13.848Z,16.41
2018-11-01T19:46:44.347Z,16.30
2018-11-01T19:49:16.097Z,16.33
2018-11-01T19:51:53.244Z,16.37
2018-11-01T19:54:23.880Z,16.24
2018-11-01T19:56:53.545Z,16.31
2018-11-01T19:59:25.756Z,16.55
2018-11-01T20:01:59.724Z,16.57
2018-11-01T20:04:30.649Z,16.62
2018-11-01T20:07:02.602Z,16.58
2018-11-01T20:09:32.030Z,16.70
2018-11-01T20:12:02.755Z,16.65
2018-11-01T20:14:32.558Z,16.62
2018-11-01T20:17:01.963Z,16.70
2018-11-01T20:19:31.415Z,16.75
2018-11-01T20:22:01.076Z,16.13
2018-11-01T20:24:33.582Z,16.65
2018-11-01T20:27:03.418Z,15.94
2018-11-01T20:29:36.798Z,16.24
2018-11-01T20:32:07.737Z,16.24
2018-11-01T20:34:44.862Z,16.36
2018-11-01T20:37:16.479Z,16.33
2018-11-01T20:39:47.625Z,16.14
2018-11-01T20:42:17.962Z,16.28
2018-11-01T20:44:49.966Z,16.53
2018-11-01T20:47:20.857Z,16.58
2018-11-01T20:49:50.385Z,16.45
2018-11-01T20:52:20.854Z,16.50
2018-11-01T20:54:50.317Z,16.49
2018-11-01T20:57:20.773Z,16.33
2018-11-01T20:59:52.156Z,16.34
2018-11-01T21:02:21.650Z,16.58
2018-11-01T21:04:51.922Z,16.68
2018-11-01T21:07:21.541Z,16.75
2018-11-01T21:09:52.428Z,16.88
2018-11-01T21:12:22.781Z,17.08
2018-11-01T21:14:52.900Z,17.17
2018-11-01T21:17:22.392Z,17.12
2018-11-01T21:19:52.525Z,17.14
2018-11-01T21:22:24.616Z,17.21
2018-11-01T21:24:55.928Z,17.21
2018-11-01T21:27:27.813Z,17.22
2018-11-01T21:30:00.716Z,17.35
2018-11-01T21:32:32.143Z,17.29
2018-11-01T21:35:09.740Z,17.35
2018-11-01T21:37:40.091Z,17.52
2018-11-01T21:40:13.817Z,17.50
2018-11-01T21:42:44.276Z,17.48
2018-11-01T21:45:17.476Z,17.24
2018-11-01T21:47:48.809Z,17.71
2018-11-01T21:50:18.362Z,17.55
2018-11-01T21:52:49.242Z,17.00
2018-11-01T21:55:19.492Z,17.71
2018-11-01T21:57:50.573Z,17.52
2018-11-01T22:00:23.225Z,17.29
2018-11-01T22:02:54.629Z,17.40
2018-11-01T22:05:24.356Z,17.35
2018-11-01T22:07:54.549Z,17.31
2018-11-01T22:10:24.013Z,17.54
2018-11-01T22:12:54.477Z,17.73
2018-11-01T22:15:25.720Z,17.89
2018-11-01T22:17:55.221Z,18.04
2018-11-01T22:20:24.646Z,18.14
2018-11-01T22:22:55.764Z,18.21
2018-11-01T22:25:25.641Z,18.29
2018-11-01T22:27:56.842Z,18.52
2018-11-01T22:30:27.422Z,18.73
2018-11-01T22:32:57.509Z,18.67
2018-11-01T22:35:27.252Z,18.55
2018-11-01T22:37:58.097Z,18.44
2018-11-01T22:40:38.134Z,18.30
2018-11-01T22:43:07.876Z,18.35
2018-11-01T22:45:40.633Z,18.35
2018-11-01T22:48:10.149Z,18.16
2018-11-01T22:50:41.008Z,18.08
2018-11-01T22:53:10.483Z,18.31
2018-11-01T22:55:40.032Z,18.21
2018-11-01T22:58:10.674Z,18.25
2018-11-01T23:00:45.447Z,18.27
2018-11-01T23:03:15.663Z,18.04
2018-11-01T23:05:46.733Z,17.39
2018-11-01T23:08:17.825Z,17.10
2018-11-01T23:10:58.046Z,17.00
2018-11-01T23:13:32.113Z,16.81
2018-11-01T23:16:01.980Z,16.79
2018-11-01T23:18:32.373Z,16.84
2018-11-01T23:21:02.618Z,17.12
2018-11-01T23:23:33.257Z,16.56
2018-11-01T23:26:02.772Z,16.54
2018-11-01T23:28:33.551Z,16.52
2018-11-01T23:31:04.113Z,16.30
2018-11-01T23:33:34.467Z,16.17
2018-11-01T23:36:04.383Z,16.19
2018-11-01T23:38:40.302Z,16.57
2018-11-01T23:41:15.431Z,16.75
2018-11-01T23:43:50.850Z,17.10
2018-11-01T23:46:26.045Z,16.90
2018-11-01T23:49:01.697Z,17.05
2018-11-01T23:51:31.162Z,17.07
2018-11-01T23:54:00.568Z,17.05
2018-11-01T23:56:47.981Z,17.01
2018-11-01T23:59:17.421Z,16.86
